sensor_id;sensor_type;location;lat;lon;timestamp;pressure;altitude;pressure_sealevel;temperature;humidity
11676;BME280;5894;42.768;23.404;2023-04-29T00:01:28;95716.47;;;8.53;98.69
11676;BME280;5894;42.768;23.404;2023-04-29T00:03:55;95717.53;;;8.52;97.04
11676;BME280;5894;42.768;23.404;2023-04-29T00:06:22;95716.03;;;8.45;96.94
11676;BME280;5894;42.768;23.404;2023-04-29T00:08:50;95719.50;;;8.41;97.48
11676;BME280;5894;42.768;23.404;2023-04-29T00:11:17;95712.47;;;8.36;97.44
11676;BME280;5894;42.768;23.404;2023-04-29T00:13:45;95716.72;;;8.32;98.20
11676;BME280;5894;42.768;23.404;2023-04-29T00:16:13;95722.50;;;8.34;98.05
11676;BME280;5894;42.768;23.404;2023-04-29T00:18:41;95727.56;;;8.26;99.66
11676;BME280;5894;42.768;23.404;2023-04-29T00:21:08;95726.28;;;8.23;100.00
11676;BME280;5894;42.768;23.404;2023-04-29T00:23:35;95702.06;;;8.07;100.00
11676;BME280;5894;42.768;23.404;2023-04-29T00:26:02;95719.25;;;8.19;100.00
11676;BME280;5894;42.768;23.404;2023-04-29T00:28:29;95724.00;;;8.17;100.00
11676;BME280;5894;42.768;23.404;2023-04-29T00:30:57;95712.41;;;7.99;100.00
11676;BME280;5894;42.768;23.404;2023-04-29T00:33:25;95723.84;;;8.08;100.00
11676;BME280;5894;42.768;23.404;2023-04-29T00:35:52;95712.84;;;8.06;100.00
11676;BME280;5894;42.768;23.404;2023-04-29T00:38:19;95722.28;;;8.07;100.00
11676;BME280;5894;42.768;23.404;2023-04-29T00:40:47;95716.53;;;8.05;100.00
11676;BME280;5894;42.768;23.404;2023-04-29T00:43:14;95716.53;;;8.05;100.00
11676;BME280;5894;42.768;23.404;2023-04-29T00:45:41;95712.34;;;8.04;100.00
11676;BME280;5894;42.768;23.404;2023-04-29T00:48:08;95698.50;;;7.98;100.00
11676;BME280;5894;42.768;23.404;2023-04-29T00:50:36;95715.22;;;8.02;100.00
11676;BME280;5894;42.768;23.404;2023-04-29T00:53:03;95706.84;;;8.00;100.00
11676;BME280;5894;42.768;23.404;2023-04-29T00:55:31;95701.66;;;7.95;100.00
11676;BME280;5894;42.768;23.404;2023-04-29T00:57:59;95678.50;;;7.79;100.00
11676;BME280;5894;42.768;23.404;2023-04-29T01:00:27;95699.94;;;7.86;100.00
11676;BME280;5894;42.768;23.404;2023-04-29T01:02:54;95674.56;;;7.52;100.00
11676;BME280;5894;42.768;23.404;2023-04-29T01:05:22;95686.94;;;7.76;100.00
11676;BME280;5894;42.768;23.404;2023-04-29T01:07:58;95694.06;;;7.70;100.00
11676;BME280;5894;42.768;23.404;2023-04-29T01:10:27;95711.97;;;7.68;100.00
11676;BME280;5894;42.768;23.404;2023-04-29T01:13:06;95699.16;;;7.61;100.00
11676;BME280;5894;42.768;23.404;2023-04-29T01:15:45;95704.94;;;7.58;100.00
11676;BME280;5894;42.768;23.404;2023-04-29T01:18:21;95700.53;;;7.54;100.00
11676;BME280;5894;42.768;23.404;2023-04-29T01:20:51;95740.97;;;7.53;100.00
11676;BME280;5894;42.768;23.404;2023-04-29T01:23:25;95694.00;;;7.51;100.00
11676;BME280;5894;42.768;23.404;2023-04-29T01:25:53;95699.50;;;7.55;100.00
11676;BME280;5894;42.768;23.404;2023-04-29T01:28:45;95685.69;;;7.44;100.00
11676;BME280;5894;42.768;23.404;2023-04-29T01:31:18;95699.75;;;7.53;100.00
11676;BME280;5894;42.768;23.404;2023-04-29T01:33:54;95701.47;;;7.39;100.00
11676;BME280;5894;42.768;23.404;2023-04-29T01:36:30;95702.34;;;7.29;100.00
11676;BME280;5894;42.768;23.404;2023-04-29T01:39:08;95688.53;;;7.19;100.00
11676;BME280;5894;42.768;23.404;2023-04-29T01:41:42;95673.41;;;7.11;100.00
11676;BME280;5894;42.768;23.404;2023-04-29T01:44:22;95684.66;;;7.16;100.00
11676;BME280;5894;42.768;23.404;2023-04-29T01:46:51;95698.25;;;7.18;100.00
11676;BME280;5894;42.768;23.404;2023-04-29T01:49:24;95655.00;;;6.87;100.00
11676;BME280;5894;42.768;23.404;2023-04-29T01:51:51;95646.59;;;6.90;100.00
11676;BME280;5894;42.768;23.404;2023-04-29T01:54:19;95692.72;;;7.20;100.00
11676;BME280;5894;42.768;23.404;2023-04-29T01:56:47;95683.13;;;7.10;100.00
11676;BME280;5894;42.768;23.404;2023-04-29T01:59:39;95686.75;;;7.14;100.00
11676;BME280;5894;42.768;23.404;2023-04-29T02:02:16;95688.34;;;7.10;100.00
11676;BME280;5894;42.768;23.404;2023-04-29T02:04:52;95685.91;;;7.19;100.00
11676;BME280;5894;42.768;23.404;2023-04-29T02:07:19;95682.19;;;6.96;100.00
11676;BME280;5894;42.768;23.404;2023-04-29T02:09:48;95687.16;;;6.97;100.00
11676;BME280;5894;42.768;23.404;2023-04-29T02:12:17;95684.59;;;6.87;100.00
11676;BME280;5894;42.768;23.404;2023-04-29T02:14:44;95687.00;;;6.84;100.00
11676;BME280;5894;42.768;23.404;2023-04-29T02:17:12;95688.00;;;6.88;100.00
11676;BME280;5894;42.768;23.404;2023-04-29T02:19:41;95697.97;;;6.91;100.00
11676;BME280;5894;42.768;23.404;2023-04-29T02:22:08;95687.47;;;6.91;100.00
11676;BME280;5894;42.768;23.404;2023-04-29T02:24:37;95688.78;;;6.93;100.00
11676;BME280;5894;42.768;23.404;2023-04-29T02:27:07;95688.97;;;6.97;100.00
11676;BME280;5894;42.768;23.404;2023-04-29T02:29:34;95673.31;;;6.92;100.00
11676;BME280;5894;42.768;23.404;2023-04-29T02:32:01;95678.22;;;6.98;100.00
11676;BME280;5894;42.768;23.404;2023-04-29T02:34:29;95672.25;;;6.93;100.00
11676;BME280;5894;42.768;23.404;2023-04-29T02:36:56;95684.59;;;6.92;100.00
11676;BME280;5894;42.768;23.404;2023-04-29T02:39:23;95671.47;;;6.92;100.00
11676;BME280;5894;42.768;23.404;2023-04-29T02:41:53;95680.91;;;6.93;100.00
11676;BME280;5894;42.768;23.404;2023-04-29T02:44:23;95671.47;;;6.92;100.00
11676;BME280;5894;42.768;23.404;2023-04-29T02:46:50;95672.94;;;6.75;100.00
11676;BME280;5894;42.768;23.404;2023-04-29T02:49:17;95667.03;;;6.88;100.00
11676;BME280;5894;42.768;23.404;2023-04-29T02:51:44;95679.41;;;6.82;100.00
11676;BME280;5894;42.768;23.404;2023-04-29T02:54:14;95687.00;;;6.84;100.00
11676;BME280;5894;42.768;23.404;2023-04-29T02:56:42;95696.53;;;6.75;100.00
11676;BME280;5894;42.768;23.404;2023-04-29T02:59:09;95711.88;;;6.86;100.00
11676;BME280;5894;42.768;23.404;2023-04-29T03:01:37;95713.84;;;6.71;100.00
11676;BME280;5894;42.768;23.404;2023-04-29T03:04:04;95709.13;;;6.68;100.00
11676;BME280;5894;42.768;23.404;2023-04-29T03:06:34;95702.88;;;6.63;100.00
11676;BME280;5894;42.768;23.404;2023-04-29T03:09:01;95695.81;;;6.59;100.00
11676;BME280;5894;42.768;23.404;2023-04-29T03:11:28;95690.06;;;6.57;100.00
11676;BME280;5894;42.768;23.404;2023-04-29T03:13:55;95694.31;;;6.48;100.00
11676;BME280;5894;42.768;23.404;2023-04-29T03:16:22;95696.47;;;6.41;100.00
11676;BME280;5894;42.768;23.404;2023-04-29T03:18:51;95705.13;;;6.41;100.00
11676;BME280;5894;42.768;23.404;2023-04-29T03:21:18;95703.00;;;6.43;100.00
11676;BME280;5894;42.768;23.404;2023-04-29T03:23:45;95707.16;;;6.44;100.00
11676;BME280;5894;42.768;23.404;2023-04-29T03:26:21;95716.34;;;6.47;100.00
11676;BME280;5894;42.768;23.404;2023-04-29T03:28:49;95714.25;;;6.44;100.00
11676;BME280;5894;42.768;23.404;2023-04-29T03:31:16;95718.44;;;6.45;100.00
11676;BME280;5894;42.768;23.404;2023-04-29T03:33:45;95726.53;;;6.48;100.00
11676;BME280;5894;42.768;23.404;2023-04-29T03:36:14;95735.72;;;6.51;100.00
11676;BME280;5894;42.768;23.404;2023-04-29T03:38:59;95745.66;;;6.54;100.00
11676;BME280;5894;42.768;23.404;2023-04-29T03:41:28;95746.94;;;6.56;100.00
11676;BME280;5894;42.768;23.404;2023-04-29T03:43:55;95738.31;;;6.51;100.00
11676;BME280;5894;42.768;23.404;2023-04-29T03:46:26;95748.75;;;6.61;100.00
11676;BME280;5894;42.768;23.404;2023-04-29T03:48:53;95757.66;;;6.60;100.00
11676;BME280;5894;42.768;23.404;2023-04-29T03:51:23;95747.69;;;6.62;100.00
11676;BME280;5894;42.768;23.404;2023-04-29T03:53:56;95704.66;;;6.29;100.00
11676;BME280;5894;42.768;23.404;2023-04-29T03:56:24;95742.25;;;6.53;100.00
11676;BME280;5894;42.768;23.404;2023-04-29T03:58:52;95737.22;;;6.62;100.00
11676;BME280;5894;42.768;23.404;2023-04-29T04:01:21;95735.72;;;6.51;100.00
11676;BME280;5894;42.768;23.404;2023-04-29T04:03:48;95736.81;;;6.40;100.00
11676;BME280;5894;42.768;23.404;2023-04-29T04:06:15;95728.97;;;6.40;100.00
11676;BME280;5894;42.768;23.404;2023-04-29T04:08:44;95727.13;;;6.35;100.00
11676;BME280;5894;42.768;23.404;2023-04-29T04:11:18;95724.28;;;6.32;100.00
11676;BME280;5894;42.768;23.404;2023-04-29T04:13:54;95744.19;;;6.33;100.00
11676;BME280;5894;42.768;23.404;2023-04-29T04:16:22;95746.25;;;6.41;100.00
11676;BME280;5894;42.768;23.404;2023-04-29T04:18:50;95749.59;;;6.51;100.00
11676;BME280;5894;42.768;23.404;2023-04-29T04:21:17;95746.66;;;6.63;100.00
11676;BME280;5894;42.768;23.404;2023-04-29T04:23:53;95748.47;;;6.62;100.00
11676;BME280;5894;42.768;23.404;2023-04-29T04:26:22;95740.06;;;6.66;100.00
11676;BME280;5894;42.768;23.404;2023-04-29T04:28:52;95732.69;;;6.73;100.00
11676;BME280;5894;42.768;23.404;2023-04-29T04:31:39;95730.34;;;6.71;100.00
11676;BME280;5894;42.768;23.404;2023-04-29T04:34:08;95737.94;;;6.73;100.00
11676;BME280;5894;42.768;23.404;2023-04-29T04:36:35;95732.13;;;6.76;100.00
11676;BME280;5894;42.768;23.404;2023-04-29T04:39:03;95738.16;;;6.76;100.00
11676;BME280;5894;42.768;23.404;2023-04-29T04:41:31;95743.34;;;6.86;100.00
11676;BME280;5894;42.768;23.404;2023-04-29T04:44:02;95747.69;;;7.01;100.00
11676;BME280;5894;42.768;23.404;2023-04-29T04:47:05;95748.94;;;7.09;100.00
11676;BME280;5894;42.768;23.404;2023-04-29T04:49:52;95753.47;;;7.03;100.00
11676;BME280;5894;42.768;23.404;2023-04-29T04:52:20;95743.56;;;6.95;100.00
11676;BME280;5894;42.768;23.404;2023-04-29T04:54:56;95749.50;;;7.06;100.00
11676;BME280;5894;42.768;23.404;2023-04-29T04:57:28;95726.25;;;6.94;100.00
11676;BME280;5894;42.768;23.404;2023-04-29T04:59:59;95750.00;;;7.08;100.00
11676;BME280;5894;42.768;23.404;2023-04-29T05:02:27;95745.50;;;7.13;100.00
11676;BME280;5894;42.768;23.404;2023-04-29T05:04:54;95753.91;;;7.10;100.00
11676;BME280;5894;42.768;23.404;2023-04-29T05:07:25;95738.34;;;7.24;100.00
11676;BME280;5894;42.768;23.404;2023-04-29T05:10:01;95721.28;;;7.26;100.00
11676;BME280;5894;42.768;23.404;2023-04-29T05:12:29;95723.31;;;7.34;100.00
11676;BME280;5894;42.768;23.404;2023-04-29T05:14:58;95719.97;;;7.53;100.00
11676;BME280;5894;42.768;23.404;2023-04-29T05:17:27;95710.44;;;7.62;100.00
11676;BME280;5894;42.768;23.404;2023-04-29T05:19:54;95704.09;;;7.68;100.00
11676;BME280;5894;42.768;23.404;2023-04-29T05:22:22;95699.75;;;7.53;100.00
11676;BME280;5894;42.768;23.404;2023-04-29T05:24:49;95699.59;;;7.45;100.00
11676;BME280;5894;42.768;23.404;2023-04-29T05:27:19;95703.38;;;7.33;100.00
11676;BME280;5894;42.768;23.404;2023-04-29T05:29:46;95704.19;;;7.29;100.00
11676;BME280;5894;42.768;23.404;2023-04-29T05:32:13;95713.53;;;7.40;100.00
11676;BME280;5894;42.768;23.404;2023-04-29T05:34:41;95708.94;;;7.56;100.00
11676;BME280;5894;42.768;23.404;2023-04-29T05:37:09;95705.34;;;7.70;100.00
11676;BME280;5894;42.768;23.404;2023-04-29T05:39:49;95703.91;;;7.83;100.00
11676;BME280;5894;42.768;23.404;2023-04-29T05:42:18;95700.03;;;7.99;100.00
11676;BME280;5894;42.768;23.404;2023-04-29T05:44:49;95703.78;;;8.17;100.00
11676;BME280;5894;42.768;23.404;2023-04-29T05:47:16;95707.50;;;8.35;100.00
11676;BME280;5894;42.768;23.404;2023-04-29T05:49:44;95706.81;;;8.48;100.00
11676;BME280;5894;42.768;23.404;2023-04-29T05:52:11;95704.31;;;8.57;100.00
11676;BME280;5894;42.768;23.404;2023-04-29T05:54:43;95704.13;;;8.72;100.00
11676;BME280;5894;42.768;23.404;2023-04-29T05:57:11;95673.47;;;8.62;100.00
11676;BME280;5894;42.768;23.404;2023-04-29T05:59:41;95709.88;;;9.06;100.00
11676;BME280;5894;42.768;23.404;2023-04-29T06:02:09;95712.56;;;9.20;100.00
11676;BME280;5894;42.768;23.404;2023-04-29T06:04:39;95715.53;;;9.32;99.22
11676;BME280;5894;42.768;23.404;2023-04-29T06:07:45;95711.66;;;9.57;97.12
11676;BME280;5894;42.768;23.404;2023-04-29T06:10:41;95705.25;;;9.77;94.63
11676;BME280;5894;42.768;23.404;2023-04-29T06:13:09;95705.94;;;9.96;93.60
11676;BME280;5894;42.768;23.404;2023-04-29T06:15:37;95699.78;;;10.14;92.11
11676;BME280;5894;42.768;23.404;2023-04-29T06:18:05;95709.75;;;10.31;90.78
11676;BME280;5894;42.768;23.404;2023-04-29T06:20:32;95708.03;;;10.49;88.90
11676;BME280;5894;42.768;23.404;2023-04-29T06:22:59;95713.34;;;10.71;86.70
11676;BME280;5894;42.768;23.404;2023-04-29T06:25:26;95710.88;;;10.88;85.79
11676;BME280;5894;42.768;23.404;2023-04-29T06:27:55;95710.22;;;11.05;84.37
11676;BME280;5894;42.768;23.404;2023-04-29T06:30:25;95663.69;;;10.87;83.83
11676;BME280;5894;42.768;23.404;2023-04-29T06:32:55;95706.06;;;11.35;84.97
11676;BME280;5894;42.768;23.404;2023-04-29T06:35:22;95706.47;;;11.51;81.42
11676;BME280;5894;42.768;23.404;2023-04-29T06:37:52;95710.84;;;11.64;80.76
11676;BME280;5894;42.768;23.404;2023-04-29T06:40:37;95708.47;;;11.76;80.17
11676;BME280;5894;42.768;23.404;2023-04-29T06:43:15;95705.06;;;11.84;79.28
11676;BME280;5894;42.768;23.404;2023-04-29T06:46:03;95701.50;;;11.80;79.78
11676;BME280;5894;42.768;23.404;2023-04-29T06:48:43;95695.00;;;11.95;80.84
11676;BME280;5894;42.768;23.404;2023-04-29T06:51:11;95692.28;;;12.17;79.50
11676;BME280;5894;42.768;23.404;2023-04-29T06:53:38;95688.13;;;12.33;80.17
11676;BME280;5894;42.768;23.404;2023-04-29T06:56:06;95686.88;;;12.48;76.86
11676;BME280;5894;42.768;23.404;2023-04-29T06:58:33;95688.91;;;12.51;75.01
11676;BME280;5894;42.768;23.404;2023-04-29T07:01:00;95681.13;;;12.46;75.41
11676;BME280;5894;42.768;23.404;2023-04-29T07:03:28;95684.59;;;12.55;76.05
11676;BME280;5894;42.768;23.404;2023-04-29T07:05:57;95677.13;;;12.66;79.88
11676;BME280;5894;42.768;23.404;2023-04-29T07:08:24;95677.41;;;12.81;77.86
11676;BME280;5894;42.768;23.404;2023-04-29T07:10:53;95665.72;;;12.91;74.39
11676;BME280;5894;42.768;23.404;2023-04-29T07:13:22;95631.19;;;12.79;74.22
11676;BME280;5894;42.768;23.404;2023-04-29T07:15:50;95670.69;;;13.18;70.42
11676;BME280;5894;42.768;23.404;2023-04-29T07:18:17;95673.22;;;13.15;71.31
11676;BME280;5894;42.768;23.404;2023-04-29T07:20:44;95671.78;;;13.26;73.14
11676;BME280;5894;42.768;23.404;2023-04-29T07:23:14;95680.31;;;13.40;72.42
11676;BME280;5894;42.768;23.404;2023-04-29T07:25:41;95675.19;;;13.35;67.61
11676;BME280;5894;42.768;23.404;2023-04-29T07:28:08;95672.97;;;13.46;71.01
11676;BME280;5894;42.768;23.404;2023-04-29T07:30:35;95675.13;;;13.52;69.04
11676;BME280;5894;42.768;23.404;2023-04-29T07:33:03;95672.66;;;13.56;68.46
11676;BME280;5894;42.768;23.404;2023-04-29T07:35:30;95678.53;;;13.70;68.99
11676;BME280;5894;42.768;23.404;2023-04-29T07:37:57;95675.34;;;13.85;70.95
11676;BME280;5894;42.768;23.404;2023-04-29T07:40:26;95685.97;;;13.77;67.81
11676;BME280;5894;42.768;23.404;2023-04-29T07:42:56;95677.03;;;13.90;67.58
11676;BME280;5894;42.768;23.404;2023-04-29T07:45:23;95682.16;;;13.95;67.70
11676;BME280;5894;42.768;23.404;2023-04-29T07:47:50;95683.19;;;14.11;68.67
11676;BME280;5894;42.768;23.404;2023-04-29T07:50:17;95677.91;;;14.32;66.02
11676;BME280;5894;42.768;23.404;2023-04-29T07:52:44;95668.81;;;14.42;63.31
11676;BME280;5894;42.768;23.404;2023-04-29T07:55:15;95671.38;;;14.29;62.95
11676;BME280;5894;42.768;23.404;2023-04-29T07:57:43;95673.38;;;14.32;61.50
11676;BME280;5894;42.768;23.404;2023-04-29T08:00:11;95660.91;;;14.54;66.46
11676;BME280;5894;42.768;23.404;2023-04-29T08:02:41;95658.97;;;14.84;62.64
11676;BME280;5894;42.768;23.404;2023-04-29T08:05:12;95662.81;;;15.07;61.49
11676;BME280;5894;42.768;23.404;2023-04-29T08:07:39;95658.59;;;15.06;59.82
11676;BME280;5894;42.768;23.404;2023-04-29T08:10:07;95624.44;;;15.04;59.55
11676;BME280;5894;42.768;23.404;2023-04-29T08:12:36;95640.53;;;15.32;57.95
11676;BME280;5894;42.768;23.404;2023-04-29T08:15:06;95647.59;;;15.61;58.05
11676;BME280;5894;42.768;23.404;2023-04-29T08:17:33;95643.19;;;15.77;57.37
11676;BME280;5894;42.768;23.404;2023-04-29T08:19:59;95642.50;;;15.81;58.72
11676;BME280;5894;42.768;23.404;2023-04-29T08:22:26;95646.59;;;15.90;56.11
11676;BME280;5894;42.768;23.404;2023-04-29T08:24:53;95637.50;;;15.79;54.97
11676;BME280;5894;42.768;23.404;2023-04-29T08:27:20;95634.53;;;15.81;56.83
11676;BME280;5894;42.768;23.404;2023-04-29T08:29:47;95640.75;;;15.85;55.76
11676;BME280;5894;42.768;23.404;2023-04-29T08:32:16;95638.75;;;15.94;58.12
11676;BME280;5894;42.768;23.404;2023-04-29T08:34:43;95643.16;;;16.02;54.17
11676;BME280;5894;42.768;23.404;2023-04-29T08:37:10;95642.19;;;15.94;55.55
11676;BME280;5894;42.768;23.404;2023-04-29T08:39:37;95637.75;;;15.86;56.43
11676;BME280;5894;42.768;23.404;2023-04-29T08:42:07;95507.00;;;15.11;53.08
11676;BME280;5894;42.768;23.404;2023-04-29T08:44:34;95630.66;;;16.02;55.70
11676;BME280;5894;42.768;23.404;2023-04-29T08:47:01;95627.84;;;16.23;56.73
11676;BME280;5894;42.768;23.404;2023-04-29T08:49:30;95631.28;;;16.36;52.54
11676;BME280;5894;42.768;23.404;2023-04-29T08:51:58;95627.69;;;16.44;50.79
11676;BME280;5894;42.768;23.404;2023-04-29T08:54:26;95625.03;;;16.44;49.66
11676;BME280;5894;42.768;23.404;2023-04-29T08:56:54;95619.38;;;16.45;47.10
11676;BME280;5894;42.768;23.404;2023-04-29T08:59:22;95601.69;;;16.25;49.22
11676;BME280;5894;42.768;23.404;2023-04-29T09:01:52;95602.34;;;16.34;47.24
11676;BME280;5894;42.768;23.404;2023-04-29T09:04:29;95612.94;;;16.46;47.88
11676;BME280;5894;42.768;23.404;2023-04-29T09:07:00;95610.81;;;16.52;49.86
11676;BME280;5894;42.768;23.404;2023-04-29T09:09:27;95612.81;;;16.55;49.04
11676;BME280;5894;42.768;23.404;2023-04-29T09:11:55;95606.50;;;16.60;49.86
11676;BME280;5894;42.768;23.404;2023-04-29T09:14:22;95602.72;;;16.61;50.78
11676;BME280;5894;42.768;23.404;2023-04-29T09:16:50;95487.34;;;16.01;49.78
11676;BME280;5894;42.768;23.404;2023-04-29T09:19:30;95613.28;;;16.85;47.30
11676;BME280;5894;42.768;23.404;2023-04-29T09:21:59;95606.69;;;16.95;48.80
11676;BME280;5894;42.768;23.404;2023-04-29T09:24:28;95594.53;;;17.09;47.08
11676;BME280;5894;42.768;23.404;2023-04-29T09:26:56;95602.19;;;17.11;44.73
11676;BME280;5894;42.768;23.404;2023-04-29T09:29:23;95598.41;;;17.12;43.57
11676;BME280;5894;42.768;23.404;2023-04-29T09:31:50;95598.91;;;17.17;45.11
11676;BME280;5894;42.768;23.404;2023-04-29T09:34:29;95593.09;;;17.28;44.47
11676;BME280;5894;42.768;23.404;2023-04-29T09:36:58;95582.84;;;17.45;43.43
11676;BME280;5894;42.768;23.404;2023-04-29T09:39:25;95585.00;;;17.55;41.25
11676;BME280;5894;42.768;23.404;2023-04-29T09:41:59;95579.19;;;17.66;41.26
11676;BME280;5894;42.768;23.404;2023-04-29T09:44:29;95564.63;;;17.79;41.61
11676;BME280;5894;42.768;23.404;2023-04-29T09:46:57;95572.19;;;17.92;41.85
11676;BME280;5894;42.768;23.404;2023-04-29T09:49:27;95562.97;;;18.06;43.39
11676;BME280;5894;42.768;23.404;2023-04-29T09:51:56;95566.34;;;18.22;43.25
11676;BME280;5894;42.768;23.404;2023-04-29T09:54:26;95557.00;;;18.31;43.29
11676;BME280;5894;42.768;23.404;2023-04-29T09:56:55;95558.00;;;18.43;41.20
11676;BME280;5894;42.768;23.404;2023-04-29T09:59:22;95559.91;;;18.42;40.74
11676;BME280;5894;42.768;23.404;2023-04-29T10:01:51;95524.84;;;18.24;42.07
11676;BME280;5894;42.768;23.404;2023-04-29T10:04:19;95547.97;;;18.55;40.02
11676;BME280;5894;42.768;23.404;2023-04-29T10:06:48;95536.72;;;18.65;39.88
11676;BME280;5894;42.768;23.404;2023-04-29T10:09:16;95534.97;;;18.73;38.91
11676;BME280;5894;42.768;23.404;2023-04-29T10:11:46;95530.94;;;18.83;38.66
11676;BME280;5894;42.768;23.404;2023-04-29T10:14:15;95540.16;;;18.85;39.55
11676;BME280;5894;42.768;23.404;2023-04-29T10:16:45;95520.59;;;18.81;39.23
11676;BME280;5894;42.768;23.404;2023-04-29T10:19:17;95511.03;;;18.80;38.64
11676;BME280;5894;42.768;23.404;2023-04-29T10:21:47;95518.44;;;18.87;36.25
11676;BME280;5894;42.768;23.404;2023-04-29T10:24:16;95512.16;;;18.79;38.69
11676;BME280;5894;42.768;23.404;2023-04-29T10:26:46;95515.75;;;18.87;38.83
11676;BME280;5894;42.768;23.404;2023-04-29T10:29:16;95512.84;;;18.95;37.04
11676;BME280;5894;42.768;23.404;2023-04-29T10:31:45;95504.16;;;19.02;37.54
11676;BME280;5894;42.768;23.404;2023-04-29T10:34:15;95503.19;;;19.10;38.91
11676;BME280;5894;42.768;23.404;2023-04-29T10:36:43;95502.59;;;19.20;39.36
11676;BME280;5894;42.768;23.404;2023-04-29T10:39:17;95498.47;;;19.26;39.82
11676;BME280;5894;42.768;23.404;2023-04-29T10:41:49;95503.50;;;19.31;37.39
11676;BME280;5894;42.768;23.404;2023-04-29T10:44:17;95493.97;;;19.30;39.33
11676;BME280;5894;42.768;23.404;2023-04-29T10:46:44;95501.72;;;19.39;40.42
11676;BME280;5894;42.768;23.404;2023-04-29T10:49:11;95489.53;;;19.41;39.14
11676;BME280;5894;42.768;23.404;2023-04-29T10:51:39;95497.03;;;19.55;38.14
11676;BME280;5894;42.768;23.404;2023-04-29T10:54:08;95496.31;;;19.58;38.90
11676;BME280;5894;42.768;23.404;2023-04-29T10:56:41;95494.84;;;19.61;37.93
11676;BME280;5894;42.768;23.404;2023-04-29T10:59:14;95487.25;;;19.66;37.50
11676;BME280;5894;42.768;23.404;2023-04-29T11:01:47;95485.41;;;19.70;37.18
11676;BME280;5894;42.768;23.404;2023-04-29T11:04:15;95481.69;;;19.78;36.71
11676;BME280;5894;42.768;23.404;2023-04-29T11:06:46;95438.94;;;19.56;37.24
11676;BME280;5894;42.768;23.404;2023-04-29T11:09:18;95486.41;;;19.89;37.79
11676;BME280;5894;42.768;23.404;2023-04-29T11:11:59;95478.03;;;19.90;36.93
11676;BME280;5894;42.768;23.404;2023-04-29T11:14:34;95481.38;;;19.84;38.30
11676;BME280;5894;42.768;23.404;2023-04-29T11:17:07;95476.44;;;19.86;38.22
11676;BME280;5894;42.768;23.404;2023-04-29T11:19:36;95472.13;;;19.77;37.34
11676;BME280;5894;42.768;23.404;2023-04-29T11:22:23;95479.72;;;19.75;36.50
11676;BME280;5894;42.768;23.404;2023-04-29T11:24:52;95480.25;;;19.58;36.87
11676;BME280;5894;42.768;23.404;2023-04-29T11:27:21;95477.13;;;19.53;38.09
11676;BME280;5894;42.768;23.404;2023-04-29T11:29:52;95478.66;;;19.54;36.30
11676;BME280;5894;42.768;23.404;2023-04-29T11:32:23;95479.25;;;19.43;37.48
11676;BME280;5894;42.768;23.404;2023-04-29T11:34:51;95477.19;;;19.33;37.52
11676;BME280;5894;42.768;23.404;2023-04-29T11:37:22;95468.56;;;19.21;37.92
11676;BME280;5894;42.768;23.404;2023-04-29T11:39:49;95426.31;;;18.81;38.31
11676;BME280;5894;42.768;23.404;2023-04-29T11:42:21;95465.69;;;19.06;38.91
11676;BME280;5894;42.768;23.404;2023-04-29T11:44:53;95466.94;;;18.90;37.57
11676;BME280;5894;42.768;23.404;2023-04-29T11:47:25;95468.25;;;18.77;37.67
11676;BME280;5894;42.768;23.404;2023-04-29T11:53:57;95438.91;;;18.38;38.78
11676;BME280;5894;42.768;23.404;2023-04-29T11:56:25;95458.22;;;18.31;39.54
11676;BME280;5894;42.768;23.404;2023-04-29T11:58:55;95466.25;;;18.31;40.18
11676;BME280;5894;42.768;23.404;2023-04-29T12:01:24;95461.75;;;18.16;41.10
11676;BME280;5894;42.768;23.404;2023-04-29T12:03:56;95458.59;;;18.11;41.56
11676;BME280;5894;42.768;23.404;2023-04-29T12:06:26;95456.28;;;18.09;42.32
11676;BME280;5894;42.768;23.404;2023-04-29T12:08:53;95457.94;;;17.98;42.43
11676;BME280;5894;42.768;23.404;2023-04-29T12:11:22;95455.22;;;17.94;41.93
11676;BME280;5894;42.768;23.404;2023-04-29T12:13:50;95457.03;;;17.90;41.79
11676;BME280;5894;42.768;23.404;2023-04-29T12:16:17;95447.34;;;17.82;42.48
11676;BME280;5894;42.768;23.404;2023-04-29T12:18:46;95443.13;;;17.81;42.67
11676;BME280;5894;42.768;23.404;2023-04-29T12:21:14;95453.72;;;17.78;42.01
11676;BME280;5894;42.768;23.404;2023-04-29T12:23:40;95444.13;;;17.73;42.67
11676;BME280;5894;42.768;23.404;2023-04-29T12:26:08;95443.78;;;17.75;42.35
11676;BME280;5894;42.768;23.404;2023-04-29T12:28:36;95435.69;;;17.71;42.45
11676;BME280;5894;42.768;23.404;2023-04-29T12:31:04;95447.03;;;17.68;42.72
11676;BME280;5894;42.768;23.404;2023-04-29T12:33:31;95436.03;;;17.70;43.84
11676;BME280;5894;42.768;23.404;2023-04-29T12:35:59;95436.03;;;17.70;43.19
11676;BME280;5894;42.768;23.404;2023-04-29T12:38:28;95412.31;;;17.49;42.96
11676;BME280;5894;42.768;23.404;2023-04-29T12:40:58;95439.81;;;17.69;43.19
11676;BME280;5894;42.768;23.404;2023-04-29T12:43:26;95380.72;;;17.32;43.25
11676;BME280;5894;42.768;23.404;2023-04-29T12:45:59;95436.03;;;17.70;43.19
11676;BME280;5894;42.768;23.404;2023-04-29T12:48:28;95436.03;;;17.70;43.08
11676;BME280;5894;42.768;23.404;2023-04-29T12:50:56;95434.22;;;17.74;42.81
11676;BME280;5894;42.768;23.404;2023-04-29T12:53:26;95415.84;;;17.53;42.79
11676;BME280;5894;42.768;23.404;2023-04-29T12:55:53;95437.56;;;17.71;42.42
11676;BME280;5894;42.768;23.404;2023-04-29T12:58:20;95396.63;;;17.44;42.96
11676;BME280;5894;42.768;23.404;2023-04-29T13:00:47;95430.78;;;17.73;42.46
11676;BME280;5894;42.768;23.404;2023-04-29T13:03:14;95427.34;;;17.73;43.45
11676;BME280;5894;42.768;23.404;2023-04-29T13:05:42;95427.00;;;17.74;43.64
11676;BME280;5894;42.768;23.404;2023-04-29T13:08:09;95422.84;;;17.77;43.46
11676;BME280;5894;42.768;23.404;2023-04-29T13:10:37;95432.72;;;17.76;43.71
11676;BME280;5894;42.768;23.404;2023-04-29T13:13:04;95439.94;;;17.76;43.87
11676;BME280;5894;42.768;23.404;2023-04-29T13:15:34;95437.81;;;17.81;42.31
11676;BME280;5894;42.768;23.404;2023-04-29T13:18:04;95440.69;;;17.92;43.18